Wednesday, June 20, 2018, 6:37 PM EDT
Back to Local

KMSS, Massena International -richards Fld

Location: Massena, NY, United States Lat: 44.933
Local Time: 6:37 PM EDT (22:37 GMT) Lon: -74.85
Time Zone: US/Eastern Elev: 213 ft

Show me the last for .
Show Decoded

2018-06-20 17:53 METAR KMSS 202153Z AUTO 23013KT 10SM CLR 26/13 A2976 RMK AO2 SLP076 T02560133 =
2018-06-20 16:53 METAR KMSS 202053Z AUTO 23010KT 10SM CLR 26/13 A2977 RMK AO2 SLP082 T02560128
                 56012 =
2018-06-20 15:53 METAR KMSS 201953Z AUTO 24009KT 10SM CLR 26/14 A2979 RMK AO2 SLP086 T02610139 =
2018-06-20 14:53 METAR KMSS 201853Z AUTO 23013G19KT 10SM CLR 26/14 A2980 RMK AO2 SLP089 T02560139
                 =
2018-06-20 13:53 METAR KMSS 201753Z AUTO 22010KT 10SM CLR 25/14 A2981 RMK AO2 SLP093 T02500144
                 10250 20167 58016 =
2018-06-20 12:53 METAR KMSS 201653Z AUTO 23011KT 10SM CLR 24/13 A2983 RMK AO2 SLP099 T02440128 =
2018-06-20 11:53 METAR KMSS 201553Z AUTO 22008KT 10SM CLR 24/14 A2985 RMK AO2 SLP107 T02440139 =
2018-06-20 10:53 METAR KMSS 201453Z AUTO 20008KT 10SM CLR 22/14 A2986 RMK AO2 SLP110 T02220144
                 58015 =
2018-06-20 09:53 METAR KMSS 201353Z AUTO 23008KT 10SM CLR 20/13 A2987 RMK AO2 SLP116 T02000133 =
2018-06-20 08:53 METAR KMSS 201253Z AUTO 22009KT 10SM CLR 18/13 A2989 RMK AO2 SLP121 T01830133 =
2018-06-20 07:53 METAR KMSS 201153Z AUTO 22008KT 10SM CLR 17/13 A2990 RMK AO2 SLP125 T01670128
                 10167 20106 50000 =
2018-06-20 06:53 METAR KMSS 201053Z AUTO 22007KT 10SM CLR 14/12 A2991 RMK AO2 SLP128 T01440117 =
2018-06-20 05:53 METAR KMSS 200953Z AUTO 22007KT 10SM CLR 13/11 A2991 RMK AO2 SLP129 T01280111 =
2018-06-20 04:53 METAR KMSS 200853Z AUTO 22004KT 10SM CLR 11/11 A2990 RMK AO2 SLP124 T01110106
                 55007 =
2018-06-20 03:53 METAR KMSS 200753Z AUTO 23003KT 10SM CLR 11/11 A2990 RMK AO2 SLP123 T01060106 =
2018-06-20 02:53 METAR KMSS 200653Z AUTO 22003KT 10SM CLR 12/12 A2991 RMK AO2 SLP127 T01170117 =
2018-06-20 01:53 METAR KMSS 200553Z AUTO 23003KT 10SM CLR 13/12 A2992 RMK AO2 SLP131 T01280117
                 10222 20128 58002 =
2018-06-20 00:53 METAR KMSS 200453Z AUTO 00000KT 10SM CLR 13/12 A2993 RMK AO2 SLP134 T01330117
                 402390128 =
2018-06-19 23:53 METAR KMSS 200353Z AUTO 00000KT 10SM CLR 14/13 A2993 RMK AO2 SLP135 T01390133 =
2018-06-19 22:53 METAR KMSS 200253Z AUTO 00000KT 10SM CLR 13/13 A2993 RMK AO2 SLP134 T01330128
                 50003 =
2018-06-19 21:53 METAR KMSS 200153Z AUTO 00000KT 10SM CLR 14/13 A2993 RMK AO2 SLP137 T01440128 =
2018-06-19 20:53 METAR KMSS 200053Z AUTO 00000KT 10SM CLR 17/14 A2992 RMK AO2 SLP131 T01720139 =
2018-06-19 19:53 METAR KMSS 192353Z AUTO 33003KT 10SM CLR 22/11 A2992 RMK AO2 SLP131 T02220106
                 10239 20217 55002 =
2018-06-19 18:53 METAR KMSS 192253Z AUTO 31006KT 10SM CLR 23/09 A2991 RMK AO2 SLP129 T02330094 =

Support USWX by starting your Amazon purchase here.